Time;durP1;ratioP1;P1;durP2;ratioP2;P2;SDS_P1;SDS_P2;PMS_P1;PMS_P2;Temp;Humidity;BMP_temperature;BMP_pressure;BME280_temperature;BME280_humidity;BME280_pressure;Samples;Min_cycle;Max_cycle;Signal;HPM_P1;HPM_P2
2022/01/13 00:01:57;;;;;;;;;11.50;8.00;;;;;4.58;100.00;104027.09;5046488;28;11131;-72
2022/01/13 00:04:25;;;;;;;;;11.50;8.75;;;;;4.61;100.00;104032.31;5064795;28;11770;-71
2022/01/13 00:06:51;;;;;;;;;8.00;6.50;;;;;4.59;100.00;104026.16;5064495;28;11042;-72
2022/01/13 00:09:18;;;;;;;;;10.50;9.00;;;;;4.61;100.00;104026.06;5063515;28;11078;-72
2022/01/13 00:11:49;;;;;;;;;11.00;7.25;;;;;4.60;100.00;104025.22;5064789;28;11099;-72
2022/01/13 00:24:48;;;;;;;;;10.50;8.50;;;;;4.62;100.00;104023.31;5057999;28;11034;-72
2022/01/13 00:27:16;;;;;;;;;9.50;6.50;;;;;4.64;100.00;104023.25;5057992;28;11994;-70
2022/01/13 00:29:45;;;;;;;;;7.00;6.75;;;;;4.59;100.00;104022.59;5061287;28;11059;-72
2022/01/13 00:32:15;;;;;;;;;10.75;9.00;;;;;4.60;100.00;104024.34;5059979;28;11083;-72
2022/01/13 00:34:42;;;;;;;;;6.75;6.75;;;;;4.59;100.00;104010.06;5072572;28;11495;-70
2022/01/13 00:37:10;;;;;;;;;8.50;8.00;;;;;4.60;100.00;104014.47;5060190;28;11101;-73
2022/01/13 00:39:36;;;;;;;;;8.25;5.25;;;;;4.61;100.00;104008.16;5057303;28;11280;-72
2022/01/13 00:42:04;;;;;;;;;5.75;5.75;;;;;4.61;100.00;104018.91;5056479;28;11296;-71
2022/01/13 00:44:35;;;;;;;;;7.50;7.50;;;;;4.59;100.00;104019.91;5060282;28;11763;-69
2022/01/13 00:47:05;;;;;;;;;9.50;9.00;;;;;4.58;100.00;104018.19;5057546;28;11177;-72
2022/01/13 00:49:32;;;;;;;;;8.75;7.75;;;;;4.56;100.00;104015.56;5058952;28;11428;-71
2022/01/13 00:51:58;;;;;;;;;11.00;9.50;;;;;4.55;100.00;104015.63;5055829;28;11303;-71
2022/01/13 00:54:25;;;;;;;;;7.50;7.50;;;;;4.54;100.00;104016.59;5058111;28;11516;-69
2022/01/13 00:56:51;;;;;;;;;13.50;9.25;;;;;4.55;100.00;104021.00;5058031;28;11083;-68
2022/01/13 00:59:18;;;;;;;;;8.50;8.50;;;;;4.54;100.00;104021.94;5055367;28;11249;-72
2022/01/13 01:01:50;;;;;;;;;11.75;8.25;;;;;4.55;100.00;104027.25;5058982;28;11410;-71
2022/01/13 01:04:18;;;;;;;;;15.75;10.00;;;;;4.56;100.00;104028.97;5072606;28;11892;-70
2022/01/13 01:06:45;;;;;;;;;6.75;6.00;;;;;4.51;100.00;104038.19;5037040;28;11500;-72
2022/01/13 01:09:16;;;;;;;;;7.00;5.50;;;;;4.54;100.00;104036.22;5057760;28;11146;-73
2022/01/13 01:11:46;;;;;;;;;10.50;7.50;;;;;4.59;100.00;104044.94;5059632;28;11160;-71
2022/01/13 01:14:14;;;;;;;;;8.25;7.00;;;;;4.54;100.00;104044.28;5040140;28;10982;-71
2022/01/13 01:16:41;;;;;;;;;12.00;9.50;;;;;4.56;100.00;104045.06;5058685;28;11091;-68
2022/01/13 01:19:10;;;;;;;;;10.25;8.75;;;;;4.54;100.00;104055.00;5068832;28;12420;-72
2022/01/13 01:24:32;;;;;;;;;9.75;8.25;;;;;4.56;100.00;104030.78;5058568;28;11024;-72
2022/01/13 01:27:07;;;;;;;;;11.75;11.25;;;;;4.51;100.00;104032.81;5056652;28;11522;-70
2022/01/13 01:29:42;;;;;;;;;11.00;10.00;;;;;4.52;100.00;104030.06;5073360;28;11554;-69
2022/01/13 01:32:14;;;;;;;;;9.50;9.50;;;;;4.50;100.00;104025.72;5058027;28;11575;-72
2022/01/13 01:34:55;;;;;;;;;12.50;6.50;;;;;4.53;100.00;104031.81;5058400;28;11191;-72
2022/01/13 01:37:26;;;;;;;;;3.50;3.50;;;;;4.55;100.00;104023.69;5056377;28;11194;-71
2022/01/13 01:39:54;;;;;;;;;9.00;7.25;;;;;4.56;100.00;104028.97;5056121;28;11192;-72
2022/01/13 01:42:23;;;;;;;;;8.25;4.25;;;;;4.58;100.00;104036.97;5072113;28;11579;-72
2022/01/13 01:44:53;;;;;;;;;6.00;6.00;;;;;4.56;100.00;104028.09;5059666;28;11133;-70
2022/01/13 01:47:23;;;;;;;;;7.00;4.75;;;;;4.61;100.00;104023.41;5056237;28;11527;-71
2022/01/13 01:49:57;;;;;;;;;9.00;7.25;;;;;4.58;100.00;104024.41;5057365;28;11211;-69
2022/01/13 01:52:25;;;;;;;;;11.50;7.50;;;;;4.56;100.00;104020.94;5056869;28;11327;-73
2022/01/13 01:54:52;;;;;;;;;12.00;10.00;;;;;4.57;100.00;104020.00;5057553;28;11341;-69
2022/01/13 01:57:21;;;;;;;;;7.00;7.00;;;;;4.55;100.00;104015.63;5054566;28;12305;-71
2022/01/13 01:59:50;;;;;;;;;8.50;4.75;;;;;4.53;100.00;104015.72;5052395;28;11448;-72
2022/01/13 02:02:17;;;;;;;;;8.25;6.00;;;;;4.51;100.00;104012.22;5071986;28;11109;-69
2022/01/13 02:04:44;;;;;;;;;11.25;7.00;;;;;4.51;100.00;104008.69;5056162;28;11502;-71
2022/01/13 02:07:13;;;;;;;;;6.75;6.75;;;;;4.49;100.00;104007.88;5058110;28;11469;-72
2022/01/13 02:09:42;;;;;;;;;9.75;7.25;;;;;4.49;100.00;104005.19;5054635;28;11499;-72
2022/01/13 02:12:15;;;;;;;;;9.50;8.00;;;;;4.50;100.00;104001.56;5055432;28;11206;-72
2022/01/13 02:14:58;;;;;;;;;9.50;6.25;;;;;4.46;100.00;103999.94;5056105;28;11438;-71
2022/01/13 02:17:28;;;;;;;;;9.00;8.25;;;;;4.42;100.00;104001.91;5058893;28;11228;-70
2022/01/13 02:19:57;;;;;;;;;7.25;6.00;;;;;4.45;100.00;103996.41;5055991;28;11417;-71
2022/01/13 02:22:24;;;;;;;;;6.00;6.00;;;;;4.42;100.00;103995.69;5057188;28;11537;-70
2022/01/13 02:24:51;;;;;;;;;11.00;5.50;;;;;4.38;100.00;103991.41;5056220;28;11523;-71
2022/01/13 02:27:18;;;;;;;;;9.25;6.00;;;;;4.39;100.00;103991.31;5054087;28;11198;-71
2022/01/13 02:29:44;;;;;;;;;10.00;6.25;;;;;4.36;100.00;103996.84;5057658;28;11233;-72
2022/01/13 02:32:13;;;;;;;;;14.00;9.50;;;;;4.37;100.00;103997.72;5058653;28;11580;-71
2022/01/13 02:34:40;;;;;;;;;8.50;6.50;;;;;4.32;100.00;103992.56;5058680;28;11452;-71
2022/01/13 02:37:07;;;;;;;;;10.00;6.75;;;;;4.37;100.00;103992.34;5055509;28;11456;-69
2022/01/13 02:39:34;;;;;;;;;10.25;5.50;;;;;4.36;100.00;103994.16;5053159;28;11445;-70
2022/01/13 02:42:03;;;;;;;;;7.00;7.00;;;;;4.39;100.00;103993.13;5057681;28;11206;-68
2022/01/13 02:44:31;;;;;;;;;7.00;6.00;;;;;4.31;100.00;103978.28;5058685;28;11064;-71
2022/01/13 02:47:33;;;;;;;;;5.75;5.75;;;;;4.38;100.00;103997.63;5054903;28;11176;-70
2022/01/13 02:50:07;;;;;;;;;8.50;7.00;;;;;4.39;100.00;103996.69;5055801;28;11096;-72
2022/01/13 02:52:34;;;;;;;;;9.00;9.00;;;;;4.35;100.00;103997.78;5054949;28;11154;-71
2022/01/13 02:55:03;;;;;;;;;11.50;9.25;;;;;4.32;100.00;103987.19;5054598;28;11619;-71
2022/01/13 02:57:30;;;;;;;;;8.50;6.00;;;;;4.37;100.00;103993.22;5057761;28;11508;-68
2022/01/13 02:59:56;;;;;;;;;13.25;10.00;;;;;4.32;100.00;103990.75;5072027;28;11591;-72
2022/01/13 03:02:29;;;;;;;;;14.50;13.25;;;;;4.33;100.00;103992.50;5053379;28;11628;-72
2022/01/13 03:04:56;;;;;;;;;8.25;6.25;;;;;4.36;100.00;103983.44;5053499;28;12166;-70
2022/01/13 03:07:24;;;;;;;;;7.25;5.50;;;;;4.33;100.00;103989.81;5056317;28;11440;-70
2022/01/13 03:09:51;;;;;;;;;9.25;7.25;;;;;4.38;100.00;103991.41;5053673;28;11455;-71
2022/01/13 03:12:18;;;;;;;;;4.50;4.50;;;;;4.33;100.00;103994.31;5068309;28;11117;-68
2022/01/13 03:14:44;;;;;;;;;10.50;8.00;;;;;4.33;100.00;103989.81;5071747;28;11201;-72
2022/01/13 03:17:11;;;;;;;;;6.75;5.00;;;;;4.30;100.00;103984.59;5059461;28;11441;-70
2022/01/13 03:19:37;;;;;;;;;8.75;5.75;;;;;4.33;100.00;103983.56;5059150;28;11246;-73
2022/01/13 03:22:04;;;;;;;;;9.25;8.25;;;;;4.37;100.00;103974.44;5063041;28;11466;-72
2022/01/13 03:24:31;;;;;;;;;8.75;7.50;;;;;4.39;100.00;103972.56;5058891;28;11575;-70
2022/01/13 03:27:01;;;;;;;;;6.50;6.50;;;;;4.33;100.00;103968.34;5073768;28;11241;-70
2022/01/13 03:29:29;;;;;;;;;7.75;7.00;;;;;4.30;100.00;103973.00;5062322;28;11505;-72
2022/01/13 03:31:56;;;;;;;;;10.25;8.00;;;;;4.31;100.00;103972.06;5060752;28;11964;-71
2022/01/13 03:34:22;;;;;;;;;10.50;8.25;;;;;4.29;100.00;103965.88;5056397;28;11375;-71
2022/01/13 03:36:49;;;;;;;;;11.25;9.50;;;;;4.27;100.00;103968.63;5060620;28;12422;-69
2022/01/13 03:39:16;;;;;;;;;11.00;6.25;;;;;4.31;100.00;103961.31;5059152;28;13897;-72
2022/01/13 03:41:42;;;;;;;;;8.75;8.25;;;;;4.32;100.00;103961.25;5055693;28;11573;-72
2022/01/13 03:44:17;;;;;;;;;10.00;9.00;;;;;4.35;100.00;103956.69;5059104;28;11478;-72
2022/01/13 03:46:44;;;;;;;;;11.25;10.00;;;;;4.37;100.00;103952.97;5061041;28;11540;-69
2022/01/13 03:49:11;;;;;;;;;10.00;8.50;;;;;4.26;100.00;103949.94;5064217;28;11549;-69
2022/01/13 03:52:12;;;;;;;;;10.75;10.50;;;;;4.35;100.00;103948.63;5063034;28;11444;-69
2022/01/13 03:54:39;;;;;;;;;9.50;8.00;;;;;4.36;100.00;103945.88;5054184;28;11453;-70
2022/01/13 03:57:31;;;;;;;;;6.50;5.00;;;;;4.38;100.00;103948.47;5063108;28;11525;-70
2022/01/13 04:00:16;;;;;;;;;8.00;8.00;;;;;4.36;100.00;103953.91;5062030;28;11145;-70
2022/01/13 04:02:43;;;;;;;;;12.00;9.00;;;;;4.33;100.00;103940.66;5065047;28;12213;-68
2022/01/13 04:05:09;;;;;;;;;8.50;8.50;;;;;4.31;100.00;103951.47;5062811;28;11437;-71
2022/01/13 04:07:36;;;;;;;;;8.00;6.75;;;;;4.36;100.00;103950.38;5062488;28;11224;-69
2022/01/13 04:10:06;;;;;;;;;16.50;16.00;;;;;4.33;100.00;103946.03;5063458;28;12222;-69
2022/01/13 04:12:32;;;;;;;;;10.75;9.25;;;;;4.39;100.00;103937.69;5050431;28;12279;-70
2022/01/13 04:15:01;;;;;;;;;12.75;10.25;;;;;4.42;100.00;103929.47;5061791;28;11455;-68
2022/01/13 04:17:28;;;;;;;;;8.00;8.00;;;;;4.42;100.00;103940.22;5064563;28;11220;-72
2022/01/13 04:19:55;;;;;;;;;8.75;8.00;;;;;4.41;100.00;103930.44;5058952;28;11447;-69
2022/01/13 04:22:24;;;;;;;;;13.75;11.75;;;;;4.42;100.00;103933.97;5062391;28;11477;-70
2022/01/13 04:24:52;;;;;;;;;10.00;9.00;;;;;4.46;100.00;103931.09;5063425;28;11509;-68
2022/01/13 04:27:23;;;;;;;;;12.75;8.00;;;;;4.47;100.00;103927.47;5060344;28;11523;-69
2022/01/13 04:30:10;;;;;;;;;14.00;9.50;;;;;4.50;100.00;103935.38;5076989;28;11445;-69
2022/01/13 04:32:37;;;;;;;;;9.00;7.25;;;;;4.52;100.00;103933.50;5063402;28;11438;-69
2022/01/13 04:35:09;;;;;;;;;9.50;7.50;;;;;4.55;100.00;103927.97;5061905;28;11442;-70
2022/01/13 04:37:35;;;;;;;;;12.75;10.25;;;;;4.53;100.00;103926.31;5060167;28;11570;-71
2022/01/13 04:40:03;;;;;;;;;14.50;11.50;;;;;4.48;100.00;103939.94;5059596;28;12282;-73
2022/01/13 04:42:35;;;;;;;;;12.75;7.25;;;;;4.56;100.00;103928.84;5062565;28;12175;-71
2022/01/13 04:45:03;;;;;;;;;10.00;9.75;;;;;4.55;100.00;103930.66;5063211;28;11403;-69
2022/01/13 04:47:30;;;;;;;;;11.25;9.00;;;;;4.57;100.00;103939.50;5059644;28;12340;-69
2022/01/13 04:49:57;;;;;;;;;18.00;13.00;;;;;4.55;100.00;103936.03;5063386;28;11251;-70
2022/01/13 04:52:24;;;;;;;;;15.25;13.00;;;;;4.55;100.00;103938.69;5061284;28;11466;-70
2022/01/13 04:54:50;;;;;;;;;11.50;11.00;;;;;4.59;100.00;103934.06;5059915;28;11486;-69
2022/01/13 04:57:17;;;;;;;;;13.25;8.50;;;;;4.61;100.00;103934.84;5060324;28;11160;-71
2022/01/13 04:59:44;;;;;;;;;13.75;10.00;;;;;4.59;100.00;103934.91;5061841;28;11441;-68
2022/01/13 05:02:11;;;;;;;;;9.25;8.00;;;;;4.60;100.00;103925.94;5060651;28;12003;-70
2022/01/13 05:04:39;;;;;;;;;12.50;12.25;;;;;4.55;100.00;103937.84;5061377;28;11280;-71
2022/01/13 05:07:05;;;;;;;;;13.25;12.50;;;;;4.59;100.00;103932.25;5070028;28;12082;-70
2022/01/13 05:09:32;;;;;;;;;15.00;11.75;;;;;4.59;100.00;103932.25;5065247;28;13726;-70
2022/01/13 05:11:59;;;;;;;;;11.00;10.75;;;;;4.58;100.00;103941.22;5062570;28;11098;-69
2022/01/13 05:14:26;;;;;;;;;13.50;9.75;;;;;4.57;100.00;103939.50;5064732;28;11462;-70
2022/01/13 05:19:58;;;;;;;;;15.00;13.50;;;;;4.61;100.00;103956.31;5059262;28;11480;-68
2022/01/13 05:22:26;;;;;;;;;17.50;14.25;;;;;4.61;100.00;103961.69;5061592;28;11455;-69
2022/01/13 05:24:53;;;;;;;;;17.25;10.75;;;;;4.64;100.00;103961.53;5061923;28;12234;-70
2022/01/13 05:27:20;;;;;;;;;15.25;9.25;;;;;4.61;100.00;103957.19;5059396;28;11584;-69
2022/01/13 05:29:47;;;;;;;;;6.75;6.75;;;;;4.65;100.00;103963.28;5060480;28;11190;-69
2022/01/13 05:32:14;;;;;;;;;18.25;12.50;;;;;4.69;100.00;103966.66;5062683;28;11161;-69
2022/01/13 05:34:41;;;;;;;;;13.50;12.50;;;;;4.68;100.00;103967.63;5063305;28;12300;-69
2022/01/13 05:37:10;;;;;;;;;11.25;11.00;;;;;4.71;100.00;103959.41;5063257;28;11471;-70
2022/01/13 05:39:37;;;;;;;;;11.50;8.00;;;;;4.73;100.00;103953.06;5060158;28;11629;-69
2022/01/13 05:42:03;;;;;;;;;8.00;7.50;;;;;4.75;100.00;103961.91;5062674;28;11250;-69
2022/01/13 05:44:37;;;;;;;;;11.50;10.50;;;;;4.72;100.00;103959.38;5058532;28;11165;-71
2022/01/13 05:47:03;;;;;;;;;13.75;11.75;;;;;4.77;100.00;103956.47;5060050;28;11459;-68
2022/01/13 05:49:30;;;;;;;;;10.25;10.25;;;;;4.77;100.00;103959.13;5063147;28;11214;-69
2022/01/13 05:51:56;;;;;;;;;12.00;10.25;;;;;4.75;100.00;103956.53;5058874;28;11643;-71
2022/01/13 05:54:23;;;;;;;;;13.75;9.50;;;;;4.77;100.00;103954.63;5062699;28;11231;-69
2022/01/13 05:56:49;;;;;;;;;11.00;9.75;;;;;4.79;100.00;103957.25;5061648;28;11370;-70
2022/01/13 05:59:16;;;;;;;;;15.50;12.25;;;;;4.78;100.00;103958.19;5079429;28;11611;-71
2022/01/13 06:01:42;;;;;;;;;12.00;10.25;;;;;4.80;100.00;103959.84;5060048;28;11303;-69
2022/01/13 06:04:14;;;;;;;;;10.50;10.50;;;;;4.81;100.00;103958.91;5057815;28;11594;-70
2022/01/13 06:06:41;;;;;;;;;16.50;14.00;;;;;4.75;100.00;103959.22;5063271;28;11515;-72
2022/01/13 06:09:07;;;;;;;;;13.75;11.00;;;;;4.83;100.00;103957.00;5072768;28;11587;-69
2022/01/13 06:11:39;;;;;;;;;14.25;10.50;;;;;4.81;100.00;103955.34;5059466;28;12266;-68
2022/01/13 06:14:07;;;;;;;;;13.75;12.75;;;;;4.77;100.00;103951.09;5059449;28;11218;-70
2022/01/13 06:16:33;;;;;;;;;14.25;11.00;;;;;4.78;100.00;103959.06;5066566;28;11607;-70
2022/01/13 06:19:00;;;;;;;;;13.75;10.75;;;;;4.79;100.00;103958.13;5063092;28;11487;-69
2022/01/13 06:21:27;;;;;;;;;14.00;11.75;;;;;4.79;100.00;103958.13;5063736;28;11482;-68
2022/01/13 06:23:53;;;;;;;;;12.00;11.75;;;;;4.82;100.00;103959.78;5063042;28;11243;-69
2022/01/13 06:26:20;;;;;;;;;14.75;14.00;;;;;4.78;100.00;103961.75;5068330;28;11475;-69
2022/01/13 06:28:46;;;;;;;;;10.50;10.00;;;;;4.83;100.00;103961.50;5062328;28;12330;-69
2022/01/13 06:31:13;;;;;;;;;12.25;10.75;;;;;4.85;100.00;103959.63;5061862;28;11447;-69
2022/01/13 06:33:39;;;;;;;;;17.00;15.00;;;;;4.81;100.00;103958.03;5059999;28;11454;-69
2022/01/13 06:36:06;;;;;;;;;15.50;12.75;;;;;4.81;100.00;103953.53;5059291;28;11510;-71
2022/01/13 06:38:32;;;;;;;;;14.00;13.25;;;;;4.83;100.00;103950.78;5058160;28;11548;-69
2022/01/13 06:41:01;;;;;;;;;17.00;10.75;;;;;4.86;100.00;103956.00;5058677;28;11450;-70
2022/01/13 06:43:28;;;;;;;;;13.75;10.00;;;;;4.84;100.00;103950.69;5056498;28;11505;-69
2022/01/13 06:45:54;;;;;;;;;20.25;12.00;;;;;4.84;100.00;103957.88;5061593;28;11237;-70
2022/01/13 06:48:21;;;;;;;;;19.00;15.00;;;;;4.83;100.00;103953.47;5061672;28;11173;-68
2022/01/13 06:50:47;;;;;;;;;18.75;12.25;;;;;4.84;100.00;103961.44;5060872;28;11467;-69
2022/01/13 06:53:14;;;;;;;;;14.00;13.50;;;;;4.88;100.00;103952.28;5056283;28;11620;-70
2022/01/13 06:55:40;;;;;;;;;19.25;13.50;;;;;4.88;100.00;103951.41;5063670;28;11226;-70
2022/01/13 06:58:07;;;;;;;;;12.75;12.00;;;;;4.89;100.00;103955.84;5060676;28;11607;-68
2022/01/13 07:00:33;;;;;;;;;17.50;17.25;;;;;4.85;100.00;103954.25;5062421;28;11197;-68
2022/01/13 07:03:03;;;;;;;;;19.50;15.75;;;;;4.84;100.00;103949.84;5066506;28;11510;-68
2022/01/13 07:05:29;;;;;;;;;20.00;12.25;;;;;4.87;100.00;103952.38;5062474;28;11488;-70
2022/01/13 07:07:56;;;;;;;;;20.00;13.75;;;;;4.87;100.00;103953.22;5060980;28;11255;-68
2022/01/13 07:10:23;;;;;;;;;17.50;13.00;;;;;4.87;100.00;103953.22;5061522;28;11513;-70
2022/01/13 07:12:49;;;;;;;;;15.50;12.75;;;;;4.88;100.00;103949.59;5057482;28;11360;-69
2022/01/13 07:15:16;;;;;;;;;18.50;17.00;;;;;4.88;100.00;103946.06;5062770;28;11481;-69
2022/01/13 07:17:43;;;;;;;;;15.50;14.75;;;;;4.88;100.00;103954.97;5065947;28;11561;-70
2022/01/13 07:20:10;;;;;;;;;14.00;12.50;;;;;4.90;100.00;103955.75;5064091;28;11171;-68
2022/01/13 07:22:37;;;;;;;;;17.00;16.00;;;;;4.85;100.00;103951.56;5059309;28;11516;-68
2022/01/13 07:25:06;;;;;;;;;11.00;8.75;;;;;4.87;100.00;103945.19;5059989;28;11562;-69
2022/01/13 07:27:37;;;;;;;;;13.00;10.00;;;;;4.88;100.00;103954.97;5057647;28;11211;-69
2022/01/13 07:30:05;;;;;;;;;18.25;12.75;;;;;4.91;100.00;103959.31;5074753;28;11484;-69
2022/01/13 07:32:31;;;;;;;;;14.50;12.25;;;;;4.90;100.00;103957.56;5062332;28;11259;-69
2022/01/13 07:34:57;;;;;;;;;13.00;11.00;;;;;4.93;100.00;103955.59;5056410;28;11388;-70
2022/01/13 07:37:24;;;;;;;;;19.75;12.50;;;;;4.91;100.00;103960.19;5058088;28;12103;-68
2022/01/13 07:39:51;;;;;;;;;15.25;11.00;;;;;4.91;100.00;103956.63;5075916;28;11586;-69
2022/01/13 07:42:17;;;;;;;;;22.00;15.50;;;;;4.90;100.00;103958.44;5058190;28;12093;-68
2022/01/13 07:44:44;;;;;;;;;20.50;11.75;;;;;4.92;100.00;103969.97;5057876;28;11602;-71
2022/01/13 07:47:10;;;;;;;;;17.75;16.00;;;;;4.92;100.00;103961.06;5059431;28;11274;-68
2022/01/13 07:49:37;;;;;;;;;15.75;11.00;;;;;4.92;100.00;103969.97;5056201;28;11473;-68
2022/01/13 07:52:04;;;;;;;;;13.25;13.25;;;;;4.97;100.00;103976.97;5059892;28;11154;-69
2022/01/13 07:54:31;;;;;;;;;10.00;9.25;;;;;4.99;100.00;103973.25;5055912;28;11453;-70
2022/01/13 07:57:00;;;;;;;;;13.50;11.50;;;;;4.98;100.00;103967.97;5059667;28;11138;-69
2022/01/13 07:59:28;;;;;;;;;25.50;20.25;;;;;4.93;100.00;103960.09;5060399;28;11147;-70
2022/01/13 08:01:59;;;;;;;;;18.00;18.00;;;;;5.00;100.00;103974.13;5062704;28;12194;-69
2022/01/13 08:04:26;;;;;;;;;11.50;11.50;;;;;5.04;100.00;103967.66;5061562;28;12208;-68
2022/01/13 08:06:53;;;;;;;;;18.50;15.00;;;;;5.04;100.00;103976.56;5063076;28;11520;-69
2022/01/13 08:09:21;;;;;;;;;11.25;10.50;;;;;5.02;100.00;103977.59;5059337;28;12315;-68
2022/01/13 08:11:47;;;;;;;;;13.75;12.00;;;;;5.03;100.00;103966.78;5060755;28;11309;-70
2022/01/13 08:14:14;;;;;;;;;19.50;14.50;;;;;5.27;100.00;103970.06;5059179;28;11182;-68
2022/01/13 08:16:43;;;;;;;;;14.25;10.50;;;;;5.20;100.00;103976.66;5062426;28;11521;-71
2022/01/13 08:21:56;;;;;;;;;12.50;11.00;;;;;5.17;100.00;103975.00;5061446;28;11556;-70
2022/01/13 08:24:22;;;;;;;;;14.50;12.75;;;;;5.17;100.00;103972.31;5061439;28;11556;-71
2022/01/13 08:26:49;;;;;;;;;15.50;13.50;;;;;5.20;100.00;103974.88;5061144;28;11481;-69
2022/01/13 08:29:16;;;;;;;;;17.00;14.50;;;;;5.22;100.00;103969.44;5060645;28;11186;-68
2022/01/13 08:31:43;;;;;;;;;20.25;18.25;;;;;5.25;100.00;103971.97;5062400;28;11259;-69
2022/01/13 08:34:09;;;;;;;;;18.75;17.50;;;;;5.26;100.00;103981.75;5059790;28;11273;-70
2022/01/13 08:36:36;;;;;;;;;15.25;12.00;;;;;5.27;100.00;103982.63;5059146;28;12346;-70
2022/01/13 08:39:02;;;;;;;;;16.00;12.00;;;;;5.28;100.00;103982.53;5061345;28;11222;-69
2022/01/13 08:41:29;;;;;;;;;16.00;13.00;;;;;5.31;100.00;103985.06;5059517;28;11356;-69
2022/01/13 08:43:55;;;;;;;;;17.75;15.00;;;;;5.29;100.00;103986.09;5062136;28;11119;-71
2022/01/13 08:46:23;;;;;;;;;20.25;12.75;;;;;5.29;100.00;103988.78;5061798;28;11186;-69
2022/01/13 08:48:51;;;;;;;;;22.00;18.75;;;;;5.34;100.00;103984.03;5059448;28;11505;-68
2022/01/13 08:51:18;;;;;;;;;18.75;18.50;;;;;5.30;100.00;103975.28;5060285;28;11563;-69
2022/01/13 08:53:46;;;;;;;;;19.75;18.75;;;;;5.25;100.00;103980.88;5062318;28;11560;-69
2022/01/13 08:56:13;;;;;;;;;22.25;15.25;;;;;5.31;100.00;103986.88;5074423;28;11580;-69
2022/01/13 08:58:40;;;;;;;;;16.25;12.50;;;;;5.35;100.00;103985.78;5061328;28;12233;-71
2022/01/13 09:01:07;;;;;;;;;18.50;16.25;;;;;5.35;100.00;103985.78;5059451;28;11165;-70
2022/01/13 09:03:35;;;;;;;;;19.75;19.00;;;;;5.36;100.00;103988.38;5061490;28;11323;-71
2022/01/13 09:06:03;;;;;;;;;19.25;14.50;;;;;5.39;100.00;103988.22;5060069;28;11486;-69
2022/01/13 09:08:34;;;;;;;;;21.25;17.25;;;;;5.44;100.00;103979.94;5062017;28;11864;-69
2022/01/13 09:11:01;;;;;;;;;21.75;17.50;;;;;5.45;100.00;103981.66;5061507;28;11467;-69
2022/01/13 09:13:30;;;;;;;;;16.50;16.25;;;;;5.42;100.00;103976.44;5061164;28;11592;-69
2022/01/13 09:16:00;;;;;;;;;21.50;18.25;;;;;5.44;100.00;103974.56;5060524;28;11505;-69
2022/01/13 09:18:48;;;;;;;;;18.25;17.75;;;;;5.50;100.00;103974.25;5060678;28;11495;-72
2022/01/13 09:21:16;;;;;;;;;24.50;21.25;;;;;5.52;100.00;103980.44;5059953;28;11114;-70
2022/01/13 09:23:42;;;;;;;;;21.50;12.00;;;;;5.51;100.00;103979.56;5063758;28;11498;-69
2022/01/13 09:26:09;;;;;;;;;22.00;19.50;;;;;5.58;100.00;103977.41;5062164;28;11155;-71
2022/01/13 09:28:35;;;;;;;;;22.50;16.75;;;;;5.61;100.00;103969.19;5058047;28;11338;-70
2022/01/13 09:31:03;;;;;;;;;18.50;18.00;;;;;5.78;100.00;103973.69;5060887;28;12413;-70
2022/01/13 09:33:29;;;;;;;;;14.00;14.00;;;;;6.34;100.00;103978.75;5065334;28;12111;-70
2022/01/13 09:35:56;;;;;;;;;19.00;18.00;;;;;6.00;100.00;103982.41;5061082;28;10918;-71
2022/01/13 09:38:23;;;;;;;;;13.00;12.00;;;;;5.93;100.00;103980.97;5059402;28;11194;-71
2022/01/13 09:40:53;;;;;;;;;18.00;15.75;;;;;5.94;100.00;103976.44;5059394;28;11051;-71
2022/01/13 09:43:25;;;;;;;;;21.25;16.50;;;;;5.90;100.00;103977.56;5059789;28;11113;-73
2022/01/13 09:45:54;;;;;;;;;19.00;18.00;;;;;5.92;100.00;103986.44;5061197;28;10969;-70
2022/01/13 09:48:20;;;;;;;;;22.75;21.00;;;;;5.90;100.00;103980.25;5059369;28;11219;-71
2022/01/13 09:50:48;;;;;;;;;24.25;16.25;;;;;5.96;100.00;103985.34;5059394;28;11164;-70
2022/01/13 09:53:16;;;;;;;;;27.00;22.50;;;;;5.97;100.00;103974.50;5059482;28;11196;-70
2022/01/13 09:55:44;;;;;;;;;20.75;17.75;;;;;6.00;100.00;103973.47;5058851;28;11539;-70
2022/01/13 09:58:14;;;;;;;;;16.75;16.25;;;;;5.96;100.00;103972.75;5058164;28;11217;-71
2022/01/13 10:00:43;;;;;;;;;17.50;16.75;;;;;5.99;100.00;103977.09;5063361;28;11130;-70
2022/01/13 10:03:28;;;;;;;;;16.00;15.00;;;;;5.98;100.00;103980.75;5060527;28;11193;-71
2022/01/13 10:05:58;;;;;;;;;20.50;17.00;;;;;5.98;100.00;103975.38;5062578;28;11200;-70
2022/01/13 10:08:47;;;;;;;;;20.75;16.00;;;;;6.01;100.00;103986.81;5055806;28;11162;-70
2022/01/13 10:11:41;;;;;;;;;28.00;24.25;;;;;5.98;100.00;103983.44;5060304;28;11273;-71
2022/01/13 10:17:00;;;;;;;;;27.25;20.50;;;;;5.99;100.00;103982.47;5058063;28;11285;-70
2022/01/13 10:19:40;;;;;;;;;20.00;20.00;;;;;6.02;100.00;103987.69;5064051;28;11469;-70
2022/01/13 10:22:14;;;;;;;;;33.50;22.00;;;;;6.00;100.00;103985.09;5059388;28;11489;-71
2022/01/13 10:24:46;;;;;;;;;18.50;18.00;;;;;6.03;100.00;103981.38;5059813;28;11263;-70
2022/01/13 10:27:16;;;;;;;;;34.75;28.00;;;;;6.03;100.00;103981.38;5059167;28;11283;-70
2022/01/13 10:29:50;;;;;;;;;30.00;23.00;;;;;6.02;100.00;103993.94;5058450;28;11587;-70
2022/01/13 10:32:24;;;;;;;;;23.75;17.50;;;;;6.07;100.00;103991.00;5061924;28;11489;-70
2022/01/13 10:34:58;;;;;;;;;27.75;18.25;;;;;6.09;100.00;103984.59;5059273;28;11859;-70
2022/01/13 10:37:30;;;;;;;;;24.25;20.00;;;;;6.12;100.00;103986.22;5061229;28;11330;-70
2022/01/13 10:40:03;;;;;;;;;28.75;25.50;;;;;6.12;100.00;103986.22;5059903;28;11090;-72
2022/01/13 10:45:06;;;;;;;;;23.00;23.00;;;;;6.17;100.00;103981.47;5058954;28;11480;-71
2022/01/13 10:47:33;;;;;;;;;19.25;19.25;;;;;6.21;100.00;103987.59;5059739;28;11312;-70
2022/01/13 10:50:07;;;;;;;;;25.50;22.50;;;;;6.23;100.00;103980.28;5058325;28;11025;-71
2022/01/13 10:52:33;;;;;;;;;24.75;20.50;;;;;6.23;100.00;103975.78;5057683;28;11578;-70
2022/01/13 10:55:06;;;;;;;;;24.25;19.50;;;;;6.26;100.00;103970.22;5071824;28;11187;-70
2022/01/13 10:57:35;;;;;;;;;36.50;29.50;;;;;6.28;100.00;103970.13;5056121;28;11212;-70
2022/01/13 11:00:05;;;;;;;;;25.00;19.00;;;;;6.33;100.00;103971.63;5074480;28;11534;-72
2022/01/13 11:02:31;;;;;;;;;35.00;28.75;;;;;6.35;100.00;103971.53;5058895;28;11266;-71
2022/01/13 11:05:02;;;;;;;;;30.50;28.25;;;;;6.37;100.00;103966.94;5058281;28;11605;-70
2022/01/13 11:07:30;;;;;;;;;31.75;30.00;;;;;6.38;100.00;103961.47;5057650;28;12369;-70
2022/01/13 11:10:00;;;;;;;;;30.50;28.75;;;;;6.41;100.00;103961.28;5057681;28;11601;-70
2022/01/13 11:12:33;;;;;;;;;26.50;23.75;;;;;6.48;100.00;103957.34;5055879;28;12206;-70
2022/01/13 11:15:06;;;;;;;;;27.75;23.75;;;;;6.51;100.00;103955.41;5059772;28;11281;-70
2022/01/13 11:17:38;;;;;;;;;36.50;30.25;;;;;6.52;100.00;103959.84;5058722;28;11573;-70
2022/01/13 11:20:10;;;;;;;;;32.00;29.00;;;;;6.50;100.00;103959.94;5073374;28;11572;-70
2022/01/13 11:22:40;;;;;;;;;34.25;28.75;;;;;6.51;100.00;103958.97;5059240;28;11507;-70
2022/01/13 11:25:08;;;;;;;;;37.25;30.75;;;;;6.49;100.00;103950.13;5058182;28;11263;-70
2022/01/13 11:27:35;;;;;;;;;35.00;31.00;;;;;6.51;100.00;103952.72;5058493;28;11273;-70
2022/01/13 11:30:09;;;;;;;;;27.00;22.25;;;;;6.57;100.00;103950.56;5058646;28;11614;-70
2022/01/13 11:32:36;;;;;;;;;28.25;24.50;;;;;6.54;100.00;103939.09;5056856;28;11006;-69
2022/01/13 11:35:03;;;;;;;;;32.50;24.50;;;;;6.52;100.00;103935.63;5055126;28;11753;-70
2022/01/13 11:37:30;;;;;;;;;36.00;33.25;;;;;6.52;100.00;103928.41;5063282;28;11214;-70
2022/01/13 11:39:58;;;;;;;;;30.50;30.50;;;;;6.63;100.00;103925.09;5060275;28;11617;-70
2022/01/13 11:42:46;;;;;;;;;36.75;31.75;;;;;6.65;100.00;103928.56;5063098;28;11593;-70
2022/01/13 11:45:15;;;;;;;;;32.75;32.00;;;;;6.61;100.00;103935.97;5062302;28;11499;-70
2022/01/13 11:47:42;;;;;;;;;34.00;30.00;;;;;6.61;100.00;103929.72;5060534;28;11594;-70